Terminal Aerodrome Forecast
Issued by NWS Sterling, VA

Current Version | Previous Version | Graphics & Text | Print | Product List | Glossary On
Versions: 1 2 3 4 5 6 7 8 9 10 11 12 13 14 15 16 17 18 19 20 21 22 23 24 25 26 27
923
FTUS41 KLWX 252328
TAFDCA
TAF
KDCA 252328Z 2600/2624 14005KT P6SM BKN080
     FM260400 11008KT P6SM OVC050
     FM260800 09009KT P6SM OVC015
     FM261000 08009KT P6SM SCT005 OVC008
     FM261500 10009KT 4SM -DZ BKN008
     FM262100 10010G18KT 4SM -DZ BKN015=

USA.gov is the U.S. government's official web portal to all federal, state and local government web resources and services.